Time;durP1;ratioP1;P1;durP2;ratioP2;P2;SDS_P1;SDS_P2;PMS_P1;PMS_P2;Temp;Humidity;BMP_temperature;BMP_pressure;BME280_temperature;BME280_humidity;BME280_pressure;Samples;Min_cycle;Max_cycle;Signal;HPM_P1;HPM_P2
2022/10/02 00:00:49;;;;;;;7.03;3.10;;;;;;;;;;5083481;28;20196;-69
2022/10/02 00:03:17;;;;;;;3.05;1.85;;;;;;;;;;5082834;28;20525;-68
2022/10/02 00:05:45;;;;;;;4.82;2.03;;;;;;;;;;5083369;28;20551;-68
2022/10/02 00:08:13;;;;;;;6.55;2.53;;;;;;;;;;5083157;28;20196;-68
2022/10/02 00:10:43;;;;;;;2.60;2.20;;;;;;;;;;5083110;28;20200;-68
2022/10/02 00:13:12;;;;;;;5.68;2.20;;;;;;;;;;5081900;28;20430;-68
2022/10/02 00:15:41;;;;;;;1.90;1.80;;;;;;;;;;5082991;28;20232;-68
2022/10/02 00:18:11;;;;;;;2.78;1.85;;;;;;;;;;5083218;28;20204;-68
2022/10/02 00:20:41;;;;;;;5.95;1.98;;;;;;;;;;5082922;28;20271;-68
2022/10/02 00:23:11;;;;;;;5.35;1.80;;;;;;;;;;5082724;28;20262;-68
2022/10/02 00:25:40;;;;;;;6.57;1.85;;;;;;;;;;5082914;28;20492;-71
2022/10/02 00:28:12;;;;;;;3.17;1.70;;;;;;;;;;5082766;28;20196;-71
2022/10/02 00:30:43;;;;;;;3.78;1.55;;;;;;;;;;5082708;28;20196;-71
2022/10/02 00:33:15;;;;;;;6.13;1.45;;;;;;;;;;5082620;28;20412;-71
2022/10/02 00:35:48;;;;;;;2.50;1.65;;;;;;;;;;5082738;28;20196;-71
2022/10/02 00:38:21;;;;;;;7.50;1.60;;;;;;;;;;5082630;28;20422;-71
2022/10/02 00:41:01;;;;;;;7.88;1.67;;;;;;;;;;5082462;28;20267;-72
2022/10/02 00:43:32;;;;;;;4.18;1.45;;;;;;;;;;5082391;28;20193;-71
2022/10/02 00:46:19;;;;;;;4.53;1.67;;;;;;;;;;5082843;28;20299;-71
2022/10/02 00:49:00;;;;;;;4.65;1.70;;;;;;;;;;5082489;28;20200;-70
2022/10/02 00:51:35;;;;;;;6.25;1.40;;;;;;;;;;5082740;28;20200;-71
2022/10/02 00:54:09;;;;;;;2.78;1.60;;;;;;;;;;5082132;28;20188;-71
2022/10/02 00:56:42;;;;;;;3.67;1.25;;;;;;;;;;5082415;28;20203;-71
2022/10/02 00:59:15;;;;;;;2.88;1.40;;;;;;;;;;5082130;28;20496;-71
2022/10/02 01:01:45;;;;;;;5.10;1.58;;;;;;;;;;5082470;28;20349;-70
2022/10/02 01:04:14;;;;;;;3.85;1.40;;;;;;;;;;5082329;28;20203;-71
2022/10/02 01:06:41;;;;;;;2.80;1.40;;;;;;;;;;5082110;28;20231;-69
2022/10/02 01:09:07;;;;;;;2.15;1.48;;;;;;;;;;5082344;28;20197;-70
2022/10/02 01:11:35;;;;;;;1.40;1.30;;;;;;;;;;5081932;28;20210;-70
2022/10/02 01:14:01;;;;;;;3.85;1.45;;;;;;;;;;5081507;28;20230;-70
2022/10/02 01:16:28;;;;;;;1.48;1.33;;;;;;;;;;5082102;28;20242;-71
2022/10/02 01:18:54;;;;;;;4.00;1.27;;;;;;;;;;5082223;28;20197;-71
2022/10/02 01:21:28;;;;;;;4.72;1.30;;;;;;;;;;5082068;28;20199;-70
2022/10/02 01:23:59;;;;;;;4.40;1.50;;;;;;;;;;5081858;28;20290;-70
2022/10/02 01:26:27;;;;;;;2.25;1.08;;;;;;;;;;5081880;28;20227;-71
2022/10/02 01:28:53;;;;;;;1.45;1.10;;;;;;;;;;5081202;28;20211;-70
2022/10/02 01:31:20;;;;;;;4.30;1.20;;;;;;;;;;5081853;28;20396;-71
2022/10/02 01:33:48;;;;;;;2.00;1.10;;;;;;;;;;5081666;28;20216;-69
2022/10/02 01:36:14;;;;;;;2.13;1.33;;;;;;;;;;5081794;28;20200;-71
2022/10/02 01:38:41;;;;;;;5.35;1.60;;;;;;;;;;5082089;28;20397;-70
2022/10/02 01:41:10;;;;;;;1.60;1.30;;;;;;;;;;5082083;28;20204;-70
2022/10/02 01:43:39;;;;;;;3.50;1.23;;;;;;;;;;5081630;28;20192;-70
2022/10/02 01:46:15;;;;;;;3.63;1.40;;;;;;;;;;5082302;28;20196;-70
2022/10/02 01:48:44;;;;;;;3.08;1.60;;;;;;;;;;5081690;28;20196;-71
2022/10/02 01:51:16;;;;;;;2.20;1.00;;;;;;;;;;5082050;28;20196;-71
2022/10/02 01:53:46;;;;;;;4.80;1.42;;;;;;;;;;5081614;28;20366;-70
2022/10/02 01:56:17;;;;;;;3.33;1.35;;;;;;;;;;5081856;28;20446;-67
2022/10/02 01:58:49;;;;;;;5.90;1.40;;;;;;;;;;5081702;28;20204;-68
2022/10/02 02:01:20;;;;;;;3.05;1.17;;;;;;;;;;5081557;28;20203;-68
2022/10/02 02:03:52;;;;;;;1.58;1.20;;;;;;;;;;5081530;28;20518;-68
2022/10/02 02:06:21;;;;;;;3.38;1.42;;;;;;;;;;5081794;28;20223;-71
2022/10/02 02:08:49;;;;;;;2.78;1.45;;;;;;;;;;5081581;28;20203;-71
2022/10/02 02:11:16;;;;;;;3.42;1.48;;;;;;;;;;5081556;28;20197;-70
2022/10/02 02:13:47;;;;;;;4.82;1.20;;;;;;;;;;5081089;28;20216;-70
2022/10/02 02:16:18;;;;;;;1.25;1.15;;;;;;;;;;5081767;28;20271;-71
2022/10/02 02:18:48;;;;;;;2.72;1.13;;;;;;;;;;5081576;28;20205;-71
2022/10/02 02:21:18;;;;;;;3.03;1.20;;;;;;;;;;5081497;28;20215;-71
2022/10/02 02:23:45;;;;;;;2.42;1.10;;;;;;;;;;5081217;28;20193;-71
2022/10/02 02:26:12;;;;;;;3.58;1.58;;;;;;;;;;5081276;28;20218;-71
2022/10/02 02:28:41;;;;;;;1.65;1.15;;;;;;;;;;5081194;28;20209;-70
2022/10/02 02:31:11;;;;;;;3.28;1.30;;;;;;;;;;5081588;28;20200;-69
2022/10/02 02:33:39;;;;;;;7.43;1.40;;;;;;;;;;5080957;28;20216;-69
2022/10/02 02:36:08;;;;;;;4.03;1.10;;;;;;;;;;5081474;28;20203;-69
2022/10/02 02:38:37;;;;;;;3.55;1.25;;;;;;;;;;5084784;28;20234;-69
2022/10/02 02:41:05;;;;;;;3.55;1.40;;;;;;;;;;5085036;28;20440;-70
2022/10/02 02:43:35;;;;;;;6.22;1.92;;;;;;;;;;5084369;28;20199;-70
2022/10/02 02:46:03;;;;;;;4.32;1.75;;;;;;;;;;5084696;28;20196;-70
2022/10/02 02:48:33;;;;;;;3.78;1.80;;;;;;;;;;5084919;28;20433;-69
2022/10/02 02:51:03;;;;;;;4.85;1.60;;;;;;;;;;5084605;28;20216;-69
2022/10/02 02:53:31;;;;;;;2.88;1.30;;;;;;;;;;5084358;28;20217;-68
2022/10/02 02:55:59;;;;;;;8.80;1.63;;;;;;;;;;5084704;28;20203;-70
2022/10/02 02:58:28;;;;;;;5.82;1.80;;;;;;;;;;5084762;28;20530;-70
2022/10/02 03:00:54;;;;;;;7.72;2.13;;;;;;;;;;5084758;28;20196;-70
2022/10/02 03:03:20;;;;;;;8.60;1.70;;;;;;;;;;5084310;28;20376;-69
2022/10/02 03:05:49;;;;;;;7.65;1.65;;;;;;;;;;5084382;28;20216;-70
2022/10/02 03:08:18;;;;;;;4.05;1.38;;;;;;;;;;5084649;28;20467;-70
2022/10/02 03:10:48;;;;;;;4.40;1.45;;;;;;;;;;5084501;28;20407;-70
2022/10/02 03:13:20;;;;;;;3.33;1.35;;;;;;;;;;5084171;28;20208;-70
2022/10/02 03:15:53;;;;;;;3.95;1.35;;;;;;;;;;5084399;28;20196;-70
2022/10/02 03:18:31;;;;;;;5.30;1.73;;;;;;;;;;5084196;28;20202;-70
2022/10/02 03:21:04;;;;;;;9.85;2.08;;;;;;;;;;5084374;28;20202;-70
2022/10/02 03:23:34;;;;;;;4.68;1.63;;;;;;;;;;5083870;28;20193;-70
2022/10/02 03:26:02;;;;;;;4.95;1.67;;;;;;;;;;5084206;28;20203;-70
2022/10/02 03:28:31;;;;;;;3.10;1.40;;;;;;;;;;5083918;28;20280;-70
2022/10/02 03:30:58;;;;;;;2.60;1.20;;;;;;;;;;5084570;28;20415;-70
2022/10/02 03:33:25;;;;;;;3.78;1.35;;;;;;;;;;5083756;28;20250;-70
2022/10/02 03:35:52;;;;;;;4.05;1.33;;;;;;;;;;5083947;28;20388;-70
2022/10/02 03:38:21;;;;;;;2.65;1.15;;;;;;;;;;5083904;28;20513;-70
2022/10/02 03:40:47;;;;;;;4.80;1.33;;;;;;;;;;5083859;28;20203;-70
2022/10/02 03:43:18;;;;;;;6.47;1.60;;;;;;;;;;5083655;28;20193;-69
2022/10/02 03:45:44;;;;;;;4.25;1.45;;;;;;;;;;5083917;28;20390;-68
2022/10/02 03:48:10;;;;;;;7.55;1.30;;;;;;;;;;5083456;28;20200;-68
2022/10/02 03:50:37;;;;;;;5.20;2.58;;;;;;;;;;5083792;28;20525;-68
2022/10/02 03:53:06;;;;;;;8.77;1.90;;;;;;;;;;5083225;28;20220;-70
2022/10/02 03:55:37;;;;;;;5.55;1.48;;;;;;;;;;5083404;28;20223;-70
2022/10/02 03:58:09;;;;;;;6.28;1.80;;;;;;;;;;5083443;28;20518;-70
2022/10/02 04:00:37;;;;;;;3.58;1.80;;;;;;;;;;5083672;28;20185;-68
2022/10/02 04:03:05;;;;;;;3.58;1.60;;;;;;;;;;5083211;28;20196;-68
2022/10/02 04:05:35;;;;;;;5.47;1.90;;;;;;;;;;5083396;28;20432;-68
2022/10/02 04:08:02;;;;;;;9.85;1.80;;;;;;;;;;5083229;28;20535;-68
2022/10/02 04:10:31;;;;;;;2.60;1.10;;;;;;;;;;5083283;28;20204;-68
2022/10/02 04:13:02;;;;;;;4.10;1.27;;;;;;;;;;5082974;28;20227;-69
2022/10/02 04:15:30;;;;;;;2.38;1.15;;;;;;;;;;5083404;28;20394;-70
2022/10/02 04:18:00;;;;;;;2.45;1.23;;;;;;;;;;5083077;28;20219;-70
2022/10/02 04:20:30;;;;;;;8.65;1.30;;;;;;;;;;5083326;28;20267;-70
2022/10/02 04:23:00;;;;;;;3.22;1.40;;;;;;;;;;5083043;28;20484;-69
2022/10/02 04:25:28;;;;;;;2.95;1.20;;;;;;;;;;5083094;28;20267;-70
2022/10/02 04:27:56;;;;;;;7.20;1.88;;;;;;;;;;5083129;28;20385;-70
2022/10/02 04:30:24;;;;;;;11.38;1.85;;;;;;;;;;5082651;28;20238;-70
2022/10/02 04:32:50;;;;;;;4.90;1.40;;;;;;;;;;5082709;28;20598;-70
2022/10/02 04:35:20;;;;;;;3.00;1.20;;;;;;;;;;5082628;28;20219;-70
2022/10/02 04:38:02;;;;;;;2.70;1.50;;;;;;;;;;5082618;28;20211;-70
2022/10/02 04:40:49;;;;;;;4.60;1.88;;;;;;;;;;5082845;28;20233;-70
2022/10/02 04:43:18;;;;;;;6.25;1.60;;;;;;;;;;5082384;28;20207;-69
2022/10/02 04:45:57;;;;;;;4.72;1.85;;;;;;;;;;5082806;28;20204;-70
2022/10/02 04:48:35;;;;;;;3.80;1.50;;;;;;;;;;5082762;28;20473;-70
2022/10/02 04:51:05;;;;;;;4.88;1.65;;;;;;;;;;5082647;28;20433;-70
2022/10/02 04:53:40;;;;;;;3.47;1.63;;;;;;;;;;5082154;28;20416;-70
2022/10/02 04:56:19;;;;;;;3.80;1.42;;;;;;;;;;5082200;28;20196;-70
2022/10/02 04:58:50;;;;;;;4.53;1.55;;;;;;;;;;5082517;28;20401;-68
2022/10/02 05:01:23;;;;;;;4.78;1.77;;;;;;;;;;5082350;28;20189;-68
2022/10/02 05:03:58;;;;;;;5.63;1.67;;;;;;;;;;5081945;28;20191;-69
2022/10/02 05:06:31;;;;;;;3.40;1.60;;;;;;;;;;5082161;28;20220;-69
2022/10/02 05:09:01;;;;;;;7.18;1.23;;;;;;;;;;5082299;28;20256;-70
2022/10/02 05:11:33;;;;;;;4.75;1.35;;;;;;;;;;5082379;28;20199;-70
2022/10/02 05:14:08;;;;;;;2.92;1.33;;;;;;;;;;5081660;28;20215;-70
2022/10/02 05:16:44;;;;;;;2.13;1.63;;;;;;;;;;5082475;28;20381;-70
2022/10/02 05:19:20;;;;;;;4.80;1.60;;;;;;;;;;5082256;28;20409;-70
2022/10/02 05:21:52;;;;;;;4.60;1.38;;;;;;;;;;5082349;28;20384;-70
2022/10/02 05:24:26;;;;;;;4.38;1.70;;;;;;;;;;5081800;28;20187;-70
2022/10/02 05:27:08;;;;;;;2.92;1.98;;;;;;;;;;5081948;28;20202;-70
2022/10/02 05:29:41;;;;;;;10.80;1.80;;;;;;;;;;5081902;28;20200;-68
2022/10/02 05:32:24;;;;;;;3.00;1.67;;;;;;;;;;5082012;28;20191;-69
2022/10/02 05:34:58;;;;;;;5.10;1.80;;;;;;;;;;5081984;28;20208;-69
2022/10/02 05:37:33;;;;;;;4.85;1.73;;;;;;;;;;5082195;28;20185;-69
2022/10/02 05:40:03;;;;;;;3.08;1.48;;;;;;;;;;5081752;28;20202;-68
2022/10/02 05:42:32;;;;;;;4.55;1.90;;;;;;;;;;5081950;28;20196;-70
2022/10/02 05:45:00;;;;;;;6.15;2.13;;;;;;;;;;5081928;28;20448;-70
2022/10/02 05:47:29;;;;;;;5.30;2.00;;;;;;;;;;5082031;28;20479;-70
2022/10/02 05:49:58;;;;;;;7.00;2.40;;;;;;;;;;5081696;28;20196;-70
2022/10/02 05:52:25;;;;;;;2.08;1.80;;;;;;;;;;5081634;28;20203;-70
2022/10/02 05:54:54;;;;;;;3.90;2.00;;;;;;;;;;5081841;28;20223;-70
2022/10/02 05:57:26;;;;;;;4.18;2.53;;;;;;;;;;5081816;28;20370;-70
2022/10/02 05:59:56;;;;;;;5.82;2.70;;;;;;;;;;5081700;28;20204;-70
2022/10/02 06:02:29;;;;;;;5.57;2.70;;;;;;;;;;5081450;28;20197;-70
2022/10/02 06:05:00;;;;;;;9.80;3.13;;;;;;;;;;5081518;28;20231;-70
2022/10/02 06:07:26;;;;;;;8.70;3.38;;;;;;;;;;5081809;28;20204;-69
2022/10/02 06:09:57;;;;;;;5.40;3.08;;;;;;;;;;5081718;28;20348;-69
2022/10/02 06:12:29;;;;;;;8.52;3.50;;;;;;;;;;5083711;28;20181;-70
2022/10/02 06:14:59;;;;;;;8.57;4.25;;;;;;;;;;5085291;28;20205;-70
2022/10/02 06:17:27;;;;;;;7.40;4.72;;;;;;;;;;5085288;28;20197;-70
2022/10/02 06:19:55;;;;;;;6.20;4.78;;;;;;;;;;5085357;28;20204;-70
2022/10/02 06:22:25;;;;;;;4.47;3.53;;;;;;;;;;5084965;28;20203;-71
2022/10/02 06:24:53;;;;;;;9.63;3.67;;;;;;;;;;5085368;28;20187;-69
2022/10/02 06:27:33;;;;;;;6.65;3.25;;;;;;;;;;5085063;28;20197;-69
2022/10/02 06:30:01;;;;;;;4.72;2.67;;;;;;;;;;5084776;28;20500;-69
2022/10/02 06:32:32;;;;;;;5.10;2.70;;;;;;;;;;5085062;28;20518;-69
2022/10/02 06:34:58;;;;;;;7.60;3.10;;;;;;;;;;5085056;28;20216;-69
2022/10/02 06:37:43;;;;;;;7.10;2.78;;;;;;;;;;5085196;28;20200;-69
2022/10/02 06:40:19;;;;;;;6.97;3.17;;;;;;;;;;5084631;28;20196;-68
2022/10/02 06:42:51;;;;;;;5.95;2.95;;;;;;;;;;5084562;28;20203;-69
2022/10/02 06:45:22;;;;;;;3.50;2.55;;;;;;;;;;5085089;28;20365;-69
2022/10/02 06:47:59;;;;;;;7.20;2.78;;;;;;;;;;5084742;28;20200;-70
2022/10/02 06:50:40;;;;;;;6.28;2.78;;;;;;;;;;5084717;28;20211;-69
2022/10/02 06:53:13;;;;;;;4.63;2.15;;;;;;;;;;5084552;28;20191;-69
2022/10/02 06:55:44;;;;;;;6.20;2.80;;;;;;;;;;5084883;28;20208;-71
2022/10/02 06:58:19;;;;;;;3.63;2.20;;;;;;;;;;5084860;28;20189;-70
2022/10/02 07:00:48;;;;;;;8.90;2.53;;;;;;;;;;5084783;28;20184;-71
2022/10/02 07:03:27;;;;;;;6.90;2.17;;;;;;;;;;5084506;28;20203;-71
2022/10/02 07:06:06;;;;;;;6.30;1.98;;;;;;;;;;5084668;28;20238;-71
2022/10/02 07:08:40;;;;;;;7.13;2.00;;;;;;;;;;5084318;28;20203;-71
2022/10/02 07:11:10;;;;;;;5.82;1.65;;;;;;;;;;5084760;28;20234;-70
2022/10/02 07:13:45;;;;;;;6.10;2.13;;;;;;;;;;5083961;28;20202;-69
2022/10/02 07:16:38;;;;;;;5.45;1.90;;;;;;;;;;5084546;28;20566;-69
2022/10/02 07:19:28;;;;;;;5.80;2.17;;;;;;;;;;5083900;28;20438;-62
2022/10/02 07:22:01;;;;;;;6.22;2.00;;;;;;;;;;5079525;28;20229;-65
2022/10/02 07:24:38;;;;;;;6.53;2.55;;;;;;;;;;5084089;28;20180;-65
2022/10/02 07:27:10;;;;;;;7.65;3.25;;;;;;;;;;5084255;28;20207;-65
2022/10/02 07:29:41;;;;;;;4.47;2.97;;;;;;;;;;5084247;28;20208;-66
2022/10/02 07:32:19;;;;;;;4.88;3.28;;;;;;;;;;5084122;28;20185;-66
2022/10/02 07:34:50;;;;;;;7.78;3.08;;;;;;;;;;5083950;28;20220;-66
2022/10/02 07:37:20;;;;;;;4.05;2.80;;;;;;;;;;5083866;28;20504;-65
2022/10/02 07:39:54;;;;;;;6.88;2.88;;;;;;;;;;5083641;28;20204;-65
2022/10/02 07:42:30;;;;;;;6.65;3.20;;;;;;;;;;5083682;28;20196;-65
2022/10/02 07:45:02;;;;;;;7.20;3.15;;;;;;;;;;5083931;28;20492;-66
2022/10/02 07:47:42;;;;;;;6.80;3.22;;;;;;;;;;5083826;28;20210;-66
2022/10/02 07:50:11;;;;;;;6.57;3.55;;;;;;;;;;5083932;28;20200;-66
2022/10/02 07:52:41;;;;;;;9.23;3.70;;;;;;;;;;5083732;28;20198;-63
2022/10/02 07:55:13;;;;;;;6.18;3.70;;;;;;;;;;5083846;28;20223;-63
2022/10/02 07:57:44;;;;;;;5.72;3.42;;;;;;;;;;5083812;28;20386;-66
2022/10/02 08:00:14;;;;;;;5.03;3.65;;;;;;;;;;5083584;28;20185;-66
2022/10/02 08:02:44;;;;;;;8.27;4.30;;;;;;;;;;5083538;28;20202;-66
2022/10/02 08:05:16;;;;;;;7.60;3.92;;;;;;;;;;5083712;28;20515;-66
2022/10/02 08:07:43;;;;;;;12.40;4.75;;;;;;;;;;5083717;28;20184;-66
2022/10/02 08:10:12;;;;;;;6.93;4.60;;;;;;;;;;5083370;28;20355;-66
2022/10/02 08:12:41;;;;;;;7.00;4.25;;;;;;;;;;5083298;28;20196;-66
2022/10/02 08:15:14;;;;;;;9.20;4.70;;;;;;;;;;5083337;28;20228;-63
2022/10/02 08:17:45;;;;;;;11.85;6.32;;;;;;;;;;5083343;28;20427;-63
2022/10/02 08:20:15;;;;;;;12.98;6.82;;;;;;;;;;5083159;28;20488;-63
2022/10/02 08:22:44;;;;;;;8.45;6.35;;;;;;;;;;5082838;28;20201;-63
2022/10/02 08:25:17;;;;;;;10.13;5.78;;;;;;;;;;5083058;28;20192;-66
2022/10/02 08:27:47;;;;;;;11.82;6.40;;;;;;;;;;5083152;28;20203;-63
2022/10/02 08:30:15;;;;;;;9.63;5.82;;;;;;;;;;5082940;28;20208;-62
2022/10/02 08:32:42;;;;;;;7.20;5.00;;;;;;;;;;5082831;28;20196;-60
2022/10/02 08:35:11;;;;;;;10.80;5.10;;;;;;;;;;5082345;28;20219;-60
2022/10/02 08:37:42;;;;;;;8.15;5.10;;;;;;;;;;5082794;28;20259;-59
2022/10/02 08:40:30;;;;;;;6.55;4.68;;;;;;;;;;5082991;28;20290;-60
2022/10/02 08:43:16;;;;;;;10.63;4.47;;;;;;;;;;5082349;28;20203;-60
2022/10/02 08:46:03;;;;;;;11.90;4.88;;;;;;;;;;5082994;28;20200;-65
2022/10/02 08:48:49;;;;;;;6.20;4.30;;;;;;;;;;5077720;28;20203;-63
2022/10/02 08:51:38;;;;;;;5.78;3.65;;;;;;;;;;5082813;28;20418;-63
2022/10/02 08:54:22;;;;;;;7.90;4.15;;;;;;;;;;5082692;28;20500;-63
2022/10/02 08:56:59;;;;;;;6.68;4.60;;;;;;;;;;5082811;28;20222;-62
2022/10/02 08:59:38;;;;;;;10.60;4.78;;;;;;;;;;5082683;28;20204;-62
2022/10/02 09:02:37;;;;;;;19.88;10.02;;;;;;;;;;5082773;28;20184;-64
2022/10/02 09:05:18;;;;;;;11.02;5.00;;;;;;;;;;5082603;28;20294;-64
2022/10/02 09:07:57;;;;;;;14.27;7.18;;;;;;;;;;5082907;28;20197;-63
2022/10/02 09:10:45;;;;;;;9.75;5.07;;;;;;;;;;5082375;28;20203;-63
2022/10/02 09:13:25;;;;;;;10.65;4.18;;;;;;;;;;5082141;28;20218;-64
2022/10/02 09:15:56;;;;;;;11.00;4.10;;;;;;;;;;5082358;28;20227;-63
2022/10/02 09:18:35;;;;;;;5.70;3.50;;;;;;;;;;5082176;28;20190;-62
2022/10/02 09:21:19;;;;;;;5.97;2.50;;;;;;;;;;5082123;28;20533;-62
2022/10/02 09:24:00;;;;;;;5.78;1.90;;;;;;;;;;5082147;28;20196;-62
2022/10/02 09:26:36;;;;;;;9.07;3.35;;;;;;;;;;5082383;28;20180;-62
2022/10/02 09:29:21;;;;;;;6.13;2.80;;;;;;;;;;5082315;28;20257;-62
2022/10/02 09:32:05;;;;;;;7.25;3.15;;;;;;;;;;5082308;28;20203;-63
2022/10/02 09:34:51;;;;;;;6.68;3.40;;;;;;;;;;5081787;28;20224;-62
2022/10/02 09:37:42;;;;;;;6.30;3.58;;;;;;;;;;5082434;28;20184;-63
2022/10/02 09:40:25;;;;;;;8.75;3.40;;;;;;;;;;5067282;28;20384;-63
2022/10/02 09:43:01;;;;;;;9.52;3.85;;;;;;;;;;5082117;28;20256;-63
2022/10/02 09:45:35;;;;;;;8.23;2.72;;;;;;;;;;5083089;28;20476;-62
2022/10/02 09:48:29;;;;;;;9.75;3.50;;;;;;;;;;5086134;28;20196;-63
2022/10/02 09:51:14;;;;;;;5.15;2.75;;;;;;;;;;5071888;28;20205;-62
2022/10/02 09:53:55;;;;;;;9.13;2.92;;;;;;;;;;5086057;28;20245;-63
2022/10/02 09:56:48;;;;;;;7.45;2.40;;;;;;;;;;5085683;28;20212;-63
2022/10/02 09:59:35;;;;;;;9.55;2.80;;;;;;;;;;5086359;28;20395;-63
2022/10/02 10:02:13;;;;;;;6.72;2.58;;;;;;;;;;5086113;28;20191;-63
2022/10/02 10:04:52;;;;;;;5.95;2.70;;;;;;;;;;5085660;28;20197;-62
2022/10/02 10:07:45;;;;;;;7.18;2.53;;;;;;;;;;5086236;28;20480;-63
2022/10/02 10:10:32;;;;;;;4.57;3.03;;;;;;;;;;5085865;28;20476;-62
2022/10/02 10:13:15;;;;;;;7.72;2.85;;;;;;;;;;5080262;28;20418;-63
2022/10/02 10:15:55;;;;;;;4.70;2.47;;;;;;;;;;5085687;28;20212;-63
2022/10/02 10:18:48;;;;;;;8.15;2.90;;;;;;;;;;5085591;28;20572;-63
2022/10/02 10:21:33;;;;;;;8.10;3.20;;;;;;;;;;5085646;28;20226;-63
2022/10/02 10:24:14;;;;;;;6.68;3.03;;;;;;;;;;5074886;28;20197;-63
2022/10/02 10:26:54;;;;;;;5.25;2.88;;;;;;;;;;5085516;28;20197;-63
2022/10/02 10:29:33;;;;;;;6.65;2.80;;;;;;;;;;5085559;28;20208;-63
2022/10/02 10:32:18;;;;;;;9.38;5.72;;;;;;;;;;5085226;28;20184;-63
2022/10/02 10:35:05;;;;;;;7.10;2.35;;;;;;;;;;5085359;28;20196;-63
2022/10/02 10:40:38;;;;;;;2.45;1.30;;;;;;;;;;5085076;28;20184;-63
2022/10/02 10:43:14;;;;;;;6.35;3.30;;;;;;;;;;5084958;28;20400;-62
2022/10/02 10:45:51;;;;;;;1.77;1.17;;;;;;;;;;5085006;28;20214;-63
2022/10/02 10:48:30;;;;;;;2.25;1.00;;;;;;;;;;5085033;28;20508;-63
2022/10/02 10:51:13;;;;;;;1.00;0.90;;;;;;;;;;5085037;28;20196;-62
2022/10/02 10:53:54;;;;;;;1.90;0.98;;;;;;;;;;5084694;28;20203;-63
2022/10/02 10:56:27;;;;;;;1.38;1.30;;;;;;;;;;5071976;28;20220;-63
2022/10/02 10:59:06;;;;;;;1.80;1.20;;;;;;;;;;5084052;28;20200;-63
2022/10/02 11:01:40;;;;;;;3.50;1.40;;;;;;;;;;5084822;28;20223;-63
2022/10/02 11:04:25;;;;;;;2.05;1.30;;;;;;;;;;5084344;28;20391;-63
2022/10/02 11:07:06;;;;;;;6.53;2.00;;;;;;;;;;5084715;28;20208;-63
2022/10/02 11:09:43;;;;;;;4.50;2.05;;;;;;;;;;5084883;28;20397;-63
2022/10/02 11:12:20;;;;;;;3.00;1.98;;;;;;;;;;5084413;28;20419;-62
2022/10/02 11:14:54;;;;;;;4.95;2.10;;;;;;;;;;5084293;28;20196;-63
2022/10/02 11:17:46;;;;;;;4.18;1.80;;;;;;;;;;5084703;28;20337;-63
2022/10/02 11:20:24;;;;;;;2.42;1.42;;;;;;;;;;5084488;28;20188;-63
2022/10/02 11:23:01;;;;;;;1.92;1.38;;;;;;;;;;5084163;28;20188;-63
2022/10/02 11:25:38;;;;;;;1.35;1.20;;;;;;;;;;5084557;28;20181;-63
2022/10/02 11:28:17;;;;;;;1.08;1.08;;;;;;;;;;5083832;28;20202;-62
2022/10/02 11:30:51;;;;;;;1.05;0.90;;;;;;;;;;5084321;28;20413;-63
2022/10/02 11:33:40;;;;;;;1.50;0.90;;;;;;;;;;5083669;28;20214;-63
2022/10/02 11:36:40;;;;;;;1.17;1.08;;;;;;;;;;5083825;28;20212;-63
2022/10/02 11:39:13;;;;;;;2.38;0.93;;;;;;;;;;5073028;28;20204;-63
2022/10/02 11:41:55;;;;;;;0.60;0.60;;;;;;;;;;5083984;28;20495;-62
2022/10/02 11:44:28;;;;;;;1.38;0.80;;;;;;;;;;5081013;28;20353;-62
2022/10/02 11:47:11;;;;;;;0.70;0.70;;;;;;;;;;5083876;28;20184;-62
2022/10/02 11:49:57;;;;;;;0.73;0.73;;;;;;;;;;5083819;28;20204;-62
2022/10/02 11:52:34;;;;;;;0.70;0.70;;;;;;;;;;5083401;28;20259;-62
2022/10/02 11:55:13;;;;;;;1.23;0.60;;;;;;;;;;5083374;28;20203;-62
2022/10/02 11:57:44;;;;;;;0.55;0.43;;;;;;;;;;5083437;28;20185;-62
2022/10/02 12:00:13;;;;;;;0.50;0.50;;;;;;;;;;5083739;28;20185;-62
2022/10/02 12:02:43;;;;;;;1.48;0.60;;;;;;;;;;5083377;28;20382;-62
2022/10/02 12:05:14;;;;;;;0.50;0.50;;;;;;;;;;5083501;28;20562;-62
2022/10/02 12:07:43;;;;;;;0.43;0.43;;;;;;;;;;5083415;28;20371;-62
2022/10/02 12:10:30;;;;;;;0.65;0.65;;;;;;;;;;5082400;28;20200;-62
2022/10/02 12:13:03;;;;;;;0.50;0.50;;;;;;;;;;5077652;28;20196;-62
2022/10/02 12:15:33;;;;;;;1.35;0.63;;;;;;;;;;5083222;28;20232;-62
2022/10/02 12:18:15;;;;;;;0.70;0.70;;;;;;;;;;5083225;28;20210;-62
2022/10/02 12:26:58;;;;;;;0.70;0.70;;;;;;;;;;5083064;28;20252;-62
2022/10/02 12:29:31;;;;;;;0.82;0.82;;;;;;;;;;5083067;28;20253;-62
2022/10/02 12:32:00;;;;;;;0.80;0.80;;;;;;;;;;5083006;28;20256;-62
2022/10/02 12:34:33;;;;;;;0.57;0.57;;;;;;;;;;5083474;28;20368;-62
2022/10/02 12:37:01;;;;;;;0.60;0.60;;;;;;;;;;5083690;28;20535;-62
2022/10/02 12:39:41;;;;;;;1.42;0.47;;;;;;;;;;5082968;28;20196;-64
2022/10/02 12:42:26;;;;;;;0.55;0.43;;;;;;;;;;5082834;28;20257;-62
2022/10/02 12:45:01;;;;;;;0.75;0.50;;;;;;;;;;5083222;28;20189;-63
2022/10/02 12:47:46;;;;;;;0.70;0.70;;;;;;;;;;5082988;28;20226;-63
2022/10/02 12:50:20;;;;;;;1.05;1.00;;;;;;;;;;5082548;28;20271;-63
2022/10/02 12:52:59;;;;;;;1.95;1.63;;;;;;;;;;5082534;28;20195;-62
2022/10/02 12:55:46;;;;;;;1.05;0.90;;;;;;;;;;5082739;28;20185;-63
2022/10/02 12:58:17;;;;;;;0.90;0.90;;;;;;;;;;5082291;28;20184;-62
2022/10/02 13:00:58;;;;;;;0.60;0.60;;;;;;;;;;5082343;28;20443;-63
2022/10/02 13:03:44;;;;;;;1.08;0.80;;;;;;;;;;5082035;28;20196;-63
2022/10/02 13:06:24;;;;;;;0.70;0.70;;;;;;;;;;5082049;28;20234;-63
2022/10/02 13:09:02;;;;;;;1.17;0.60;;;;;;;;;;5082470;28;20199;-63
2022/10/02 13:11:32;;;;;;;1.48;1.00;;;;;;;;;;5082145;28;20184;-63
2022/10/02 13:14:06;;;;;;;1.13;1.13;;;;;;;;;;5082368;28;20500;-63
2022/10/02 13:16:51;;;;;;;0.88;0.88;;;;;;;;;;5082457;28;20212;-63
2022/10/02 13:19:19;;;;;;;2.00;0.90;;;;;;;;;;5082239;28;20242;-63
2022/10/02 13:21:50;;;;;;;0.90;0.70;;;;;;;;;;5082012;28;20429;-62
2022/10/02 13:24:24;;;;;;;1.42;0.60;;;;;;;;;;5082010;28;20220;-63
2022/10/02 13:26:53;;;;;;;1.10;0.70;;;;;;;;;;5082094;28;20192;-63
2022/10/02 13:29:35;;;;;;;0.73;0.73;;;;;;;;;;5082142;28;20381;-63
2022/10/02 13:32:12;;;;;;;1.25;0.70;;;;;;;;;;5082101;28;20204;-63
2022/10/02 13:34:43;;;;;;;0.90;0.90;;;;;;;;;;5082144;28;20196;-63
2022/10/02 13:37:14;;;;;;;0.60;0.60;;;;;;;;;;5082011;28;20209;-63
2022/10/02 13:39:53;;;;;;;0.60;0.60;;;;;;;;;;5082255;28;20196;-63
2022/10/02 13:42:26;;;;;;;0.60;0.60;;;;;;;;;;5081896;28;20203;-63
2022/10/02 13:44:57;;;;;;;0.70;0.70;;;;;;;;;;5082276;28;20188;-63
2022/10/02 13:47:35;;;;;;;1.70;1.10;;;;;;;;;;5081882;28;20181;-63
2022/10/02 13:50:10;;;;;;;0.77;0.70;;;;;;;;;;5082160;28;20223;-63
2022/10/02 13:52:41;;;;;;;0.60;0.60;;;;;;;;;;5082089;28;20371;-63
2022/10/02 13:55:13;;;;;;;0.85;0.85;;;;;;;;;;5082104;28;20199;-63
2022/10/02 13:57:50;;;;;;;0.70;0.70;;;;;;;;;;5082173;28;20204;-63
2022/10/02 14:00:22;;;;;;;1.60;0.98;;;;;;;;;;5082215;28;20418;-63
2022/10/02 14:02:58;;;;;;;0.50;0.50;;;;;;;;;;5082084;28;20192;-63
2022/10/02 14:05:31;;;;;;;0.50;0.50;;;;;;;;;;5081985;28;20231;-63
2022/10/02 14:08:05;;;;;;;0.47;0.47;;;;;;;;;;5082326;28;20205;-63
2022/10/02 14:10:41;;;;;;;0.45;0.45;;;;;;;;;;5081633;28;20202;-63
2022/10/02 14:13:16;;;;;;;1.40;0.40;;;;;;;;;;5081896;28;20451;-63
2022/10/02 14:15:49;;;;;;;0.60;0.60;;;;;;;;;;5081764;28;20202;-63
2022/10/02 14:18:34;;;;;;;0.35;0.35;;;;;;;;;;5081676;28;20197;-63
2022/10/02 14:21:03;;;;;;;0.93;0.47;;;;;;;;;;5081476;28;20195;-63
2022/10/02 14:23:38;;;;;;;0.45;0.45;;;;;;;;;;5081541;28;20434;-63
2022/10/02 14:26:08;;;;;;;0.47;0.47;;;;;;;;;;5081851;28;20245;-63
2022/10/02 14:28:52;;;;;;;1.65;0.65;;;;;;;;;;5081944;28;20210;-63
2022/10/02 14:31:46;;;;;;;1.75;0.40;;;;;;;;;;5081645;28;20191;-63
2022/10/02 14:34:25;;;;;;;0.50;0.50;;;;;;;;;;5084817;28;20353;-63
2022/10/02 14:36:55;;;;;;;0.43;0.40;;;;;;;;;;5085387;28;20213;-63
2022/10/02 14:39:28;;;;;;;1.13;0.50;;;;;;;;;;5085403;28;20184;-63
2022/10/02 14:42:02;;;;;;;1.42;0.40;;;;;;;;;;5084954;28;20190;-63
2022/10/02 14:44:41;;;;;;;0.50;0.50;;;;;;;;;;5085140;28;20374;-63
2022/10/02 14:47:14;;;;;;;0.40;0.40;;;;;;;;;;5085079;28;20212;-63
2022/10/02 14:49:49;;;;;;;0.52;0.40;;;;;;;;;;5084958;28;20215;-63
2022/10/02 14:52:22;;;;;;;1.65;0.30;;;;;;;;;;5084676;28;20368;-63
2022/10/02 14:55:06;;;;;;;2.47;0.40;;;;;;;;;;5084931;28;20203;-63
2022/10/02 14:57:42;;;;;;;2.25;0.22;;;;;;;;;;5085031;28;20235;-63
2022/10/02 15:00:14;;;;;;;0.32;0.32;;;;;;;;;;5085034;28;20216;-63
2022/10/02 15:02:52;;;;;;;0.32;0.20;;;;;;;;;;5084602;28;20192;-63
2022/10/02 15:05:30;;;;;;;0.30;0.30;;;;;;;;;;5084982;28;20254;-63
2022/10/02 15:07:57;;;;;;;0.38;0.38;;;;;;;;;;5084992;28;20187;-63
2022/10/02 15:10:26;;;;;;;1.80;0.30;;;;;;;;;;5084788;28;20204;-63
2022/10/02 15:12:54;;;;;;;0.50;0.50;;;;;;;;;;5084284;28;20517;-63
2022/10/02 15:15:24;;;;;;;0.60;0.60;;;;;;;;;;5084662;28;20496;-63
2022/10/02 15:17:54;;;;;;;0.50;0.50;;;;;;;;;;5084299;28;20223;-63
2022/10/02 15:20:23;;;;;;;0.50;0.50;;;;;;;;;;5084703;28;20192;-63
2022/10/02 15:22:56;;;;;;;1.88;0.50;;;;;;;;;;5084223;28;20202;-63
2022/10/02 15:25:30;;;;;;;1.15;0.60;;;;;;;;;;5084420;28;20196;-63
2022/10/02 15:28:01;;;;;;;1.48;1.23;;;;;;;;;;5084708;28;20223;-63
2022/10/02 15:30:27;;;;;;;1.48;1.35;;;;;;;;;;5084454;28;20204;-63
2022/10/02 15:33:08;;;;;;;1.40;1.30;;;;;;;;;;5083915;28;20526;-63